Time;durP1;ratioP1;P1;durP2;ratioP2;P2;SDS_P1;SDS_P2;PMS_P1;PMS_P2;Temp;Humidity;BMP_temperature;BMP_pressure;BME280_temperature;BME280_humidity;BME280_pressure;Samples;Min_cycle;Max_cycle;Signal;HPM_P1;HPM_P2
2020/12/16 00:01:41;;;;;;;28.33;16.17;;;;;;;;;;6225876;23;20434;-92
2020/12/16 00:04:07;;;;;;;28.63;18.20;;;;;;;;;;6226514;23;20411;-92
2020/12/16 00:06:34;;;;;;;33.10;20.00;;;;;;;;;;6224695;23;20403;-92
2020/12/16 00:09:00;;;;;;;32.80;20.40;;;;;;;;;;6226948;23;20416;-92
2020/12/16 00:11:26;;;;;;;38.07;21.40;;;;;;;;;;6220723;23;20419;-94
2020/12/16 00:13:52;;;;;;;31.23;18.97;;;;;;;;;;6223363;23;20434;-94
2020/12/16 00:16:18;;;;;;;27.07;16.37;;;;;;;;;;6223522;23;20470;-93
2020/12/16 00:18:45;;;;;;;28.70;15.13;;;;;;;;;;6225124;23;20916;-93
2020/12/16 00:21:11;;;;;;;29.43;17.97;;;;;;;;;;6225574;23;20407;-93
2020/12/16 00:23:37;;;;;;;28.33;17.37;;;;;;;;;;6224796;23;20419;-94
2020/12/16 00:26:04;;;;;;;27.00;15.27;;;;;;;;;;6229583;23;20498;-94
2020/12/16 00:28:30;;;;;;;26.90;16.30;;;;;;;;;;6239656;23;20406;-94
2020/12/16 00:30:57;;;;;;;24.37;15.90;;;;;;;;;;6201377;23;20407;-94
2020/12/16 00:33:23;;;;;;;29.70;16.90;;;;;;;;;;6225761;23;20403;-94
2020/12/16 00:35:49;;;;;;;32.70;18.37;;;;;;;;;;6226879;23;20415;-94
2020/12/16 00:38:15;;;;;;;32.50;19.10;;;;;;;;;;6226037;23;20414;-92
2020/12/16 00:40:41;;;;;;;27.50;16.53;;;;;;;;;;6226407;23;20516;-92
2020/12/16 00:43:07;;;;;;;27.53;17.40;;;;;;;;;;6227777;23;20409;-92
2020/12/16 00:45:34;;;;;;;26.03;16.57;;;;;;;;;;6224923;23;20407;-92
2020/12/16 00:48:00;;;;;;;31.90;18.60;;;;;;;;;;6227269;23;20773;-92
2020/12/16 00:50:26;;;;;;;32.03;16.80;;;;;;;;;;6224253;23;20417;-93
2020/12/16 00:52:53;;;;;;;26.97;16.20;;;;;;;;;;6225519;23;20421;-93
2020/12/16 00:55:19;;;;;;;28.70;15.90;;;;;;;;;;6225331;23;20415;-92
2020/12/16 00:57:45;;;;;;;28.47;17.03;;;;;;;;;;6226080;23;20407;-92
2020/12/16 01:00:11;;;;;;;28.00;17.57;;;;;;;;;;6224517;23;20455;-93
2020/12/16 01:02:39;;;;;;;31.73;16.17;;;;;;;;;;6226110;23;20399;-92
2020/12/16 01:05:05;;;;;;;27.07;17.73;;;;;;;;;;6226155;23;20411;-93
2020/12/16 01:07:31;;;;;;;29.97;17.93;;;;;;;;;;6224385;23;20915;-92
2020/12/16 01:09:57;;;;;;;31.63;17.90;;;;;;;;;;6226091;23;20422;-92
2020/12/16 01:12:23;;;;;;;23.60;15.23;;;;;;;;;;6224721;23;20411;-92
2020/12/16 01:14:49;;;;;;;25.80;16.10;;;;;;;;;;6225637;23;20574;-92
2020/12/16 01:17:16;;;;;;;23.93;15.20;;;;;;;;;;6223347;23;20480;-92
2020/12/16 01:19:42;;;;;;;26.10;16.40;;;;;;;;;;6226494;23;20453;-92
2020/12/16 01:22:08;;;;;;;27.33;17.50;;;;;;;;;;6224855;23;20410;-93
2020/12/16 01:24:34;;;;;;;22.30;15.83;;;;;;;;;;6225738;23;20457;-93
2020/12/16 01:27:01;;;;;;;30.60;18.47;;;;;;;;;;6225883;23;20406;-92
2020/12/16 01:29:27;;;;;;;31.80;16.63;;;;;;;;;;6224222;23;20439;-93
2020/12/16 01:31:53;;;;;;;27.60;16.90;;;;;;;;;;6226810;23;20406;-92
2020/12/16 01:34:20;;;;;;;25.97;14.60;;;;;;;;;;6225471;23;20411;-92
2020/12/16 01:36:46;;;;;;;25.73;15.53;;;;;;;;;;6226434;23;20954;-92
2020/12/16 01:39:13;;;;;;;28.27;17.60;;;;;;;;;;6224436;23;20446;-92
2020/12/16 01:41:39;;;;;;;25.83;15.77;;;;;;;;;;6225893;23;20408;-92
2020/12/16 01:44:13;;;;;;;28.20;16.80;;;;;;;;;;6224680;23;20437;-92
2020/12/16 01:46:45;;;;;;;28.53;17.10;;;;;;;;;;6224568;23;20411;-92
2020/12/16 01:49:11;;;;;;;31.50;17.13;;;;;;;;;;6223489;23;20414;-92
2020/12/16 01:51:38;;;;;;;29.60;16.03;;;;;;;;;;6225177;23;20414;-92
2020/12/16 01:54:06;;;;;;;28.67;17.00;;;;;;;;;;6226252;23;20406;-92
2020/12/16 01:56:33;;;;;;;26.53;16.33;;;;;;;;;;6225536;23;20407;-92
2020/12/16 01:59:00;;;;;;;30.17;16.27;;;;;;;;;;6225687;23;20447;-92
2020/12/16 02:01:28;;;;;;;26.40;16.20;;;;;;;;;;6224167;23;20411;-93
2020/12/16 02:03:56;;;;;;;27.53;14.40;;;;;;;;;;6226357;23;20411;-93
2020/12/16 02:06:23;;;;;;;25.97;15.47;;;;;;;;;;6224817;23;20422;-92
2020/12/16 02:08:50;;;;;;;24.10;15.20;;;;;;;;;;6226359;23;20477;-93
2020/12/16 02:11:16;;;;;;;25.73;16.60;;;;;;;;;;6226623;23;20419;-93
2020/12/16 02:13:42;;;;;;;28.40;17.10;;;;;;;;;;6233617;23;20415;-93
2020/12/16 02:16:08;;;;;;;27.23;16.27;;;;;;;;;;6233613;23;20411;-93
2020/12/16 02:18:35;;;;;;;28.90;16.50;;;;;;;;;;6223106;23;20422;-92
2020/12/16 02:21:02;;;;;;;30.63;16.03;;;;;;;;;;6223748;23;20434;-92
2020/12/16 02:23:30;;;;;;;27.17;15.70;;;;;;;;;;6222467;23;20429;-93
2020/12/16 02:25:57;;;;;;;29.40;17.20;;;;;;;;;;6224845;23;20435;-93
2020/12/16 02:28:23;;;;;;;31.03;17.27;;;;;;;;;;6222671;23;20409;-93
2020/12/16 02:30:49;;;;;;;28.33;16.50;;;;;;;;;;6224976;23;20445;-93
2020/12/16 02:33:15;;;;;;;26.20;16.50;;;;;;;;;;6224759;23;20432;-92
2020/12/16 02:35:41;;;;;;;29.97;18.00;;;;;;;;;;6225208;23;20418;-92
2020/12/16 02:38:07;;;;;;;27.10;16.77;;;;;;;;;;6225072;23;20960;-93
2020/12/16 02:40:33;;;;;;;25.87;15.27;;;;;;;;;;6224301;23;20950;-92
2020/12/16 02:43:00;;;;;;;27.60;16.30;;;;;;;;;;6225537;23;20445;-93
2020/12/16 02:45:26;;;;;;;27.53;16.07;;;;;;;;;;6224287;23;20406;-93
2020/12/16 02:47:52;;;;;;;26.37;15.40;;;;;;;;;;6224144;23;20815;-93
2020/12/16 02:50:18;;;;;;;24.97;16.10;;;;;;;;;;6224126;23;21046;-93
2020/12/16 02:52:44;;;;;;;26.20;15.93;;;;;;;;;;6225639;23;20414;-93
2020/12/16 02:55:10;;;;;;;26.80;16.70;;;;;;;;;;6224565;23;20414;-92
2020/12/16 02:57:36;;;;;;;25.13;16.00;;;;;;;;;;6222269;23;20407;-92
2020/12/16 03:00:04;;;;;;;26.27;15.17;;;;;;;;;;6224158;23;20457;-92
2020/12/16 03:02:30;;;;;;;26.23;13.13;;;;;;;;;;6222834;23;20414;-93
2020/12/16 03:04:56;;;;;;;22.83;13.30;;;;;;;;;;6224160;23;20403;-93
2020/12/16 03:07:22;;;;;;;17.77;11.03;;;;;;;;;;6221545;23;20413;-93
2020/12/16 03:09:48;;;;;;;21.37;13.07;;;;;;;;;;6225450;23;20465;-94
2020/12/16 03:12:14;;;;;;;18.07;11.93;;;;;;;;;;6223203;23;20465;-93
2020/12/16 03:14:40;;;;;;;22.80;13.07;;;;;;;;;;6227642;23;20415;-93
2020/12/16 03:17:07;;;;;;;25.20;14.60;;;;;;;;;;6225689;23;20406;-93
2020/12/16 03:19:33;;;;;;;22.90;12.87;;;;;;;;;;6227226;23;20454;-93
2020/12/16 03:22:00;;;;;;;22.77;13.87;;;;;;;;;;6228071;23;20401;-95
2020/12/16 03:24:26;;;;;;;20.50;13.30;;;;;;;;;;6225561;23;20452;-93
2020/12/16 03:26:52;;;;;;;17.43;10.83;;;;;;;;;;6226931;23;20446;-93
2020/12/16 03:29:18;;;;;;;23.13;12.00;;;;;;;;;;6225558;23;20444;-93
2020/12/16 03:31:44;;;;;;;19.07;11.73;;;;;;;;;;6225656;23;20405;-92
2020/12/16 03:34:11;;;;;;;17.97;11.30;;;;;;;;;;6225652;23;20417;-94
2020/12/16 03:36:37;;;;;;;24.03;12.80;;;;;;;;;;6225640;23;20425;-92
2020/12/16 03:39:04;;;;;;;22.27;11.77;;;;;;;;;;6226714;23;20453;-92
2020/12/16 03:41:31;;;;;;;21.13;13.33;;;;;;;;;;6226826;23;20456;-93
2020/12/16 03:43:57;;;;;;;20.50;12.03;;;;;;;;;;6227605;23;20407;-93
2020/12/16 03:46:23;;;;;;;21.30;12.37;;;;;;;;;;6225623;23;20899;-93
2020/12/16 03:48:49;;;;;;;21.80;12.07;;;;;;;;;;6226365;23;20409;-93
2020/12/16 03:51:16;;;;;;;25.00;12.77;;;;;;;;;;6222755;23;20407;-93
2020/12/16 03:53:42;;;;;;;20.67;11.60;;;;;;;;;;6225884;23;20418;-94
2020/12/16 03:56:09;;;;;;;19.40;11.03;;;;;;;;;;6224653;23;20414;-94
2020/12/16 03:58:35;;;;;;;20.97;12.83;;;;;;;;;;6228093;23;20473;-93
2020/12/16 04:01:04;;;;;;;22.17;13.33;;;;;;;;;;6231197;23;20430;-92
2020/12/16 04:03:30;;;;;;;21.90;13.10;;;;;;;;;;6235422;23;20476;-94
2020/12/16 04:05:56;;;;;;;25.33;13.80;;;;;;;;;;6223644;23;20932;-94
2020/12/16 04:08:23;;;;;;;26.47;14.60;;;;;;;;;;6224079;23;20445;-93
2020/12/16 04:10:49;;;;;;;22.93;14.70;;;;;;;;;;6227477;23;20403;-93
2020/12/16 04:13:15;;;;;;;19.80;12.03;;;;;;;;;;6225433;23;20415;-94
2020/12/16 04:15:41;;;;;;;22.00;12.97;;;;;;;;;;6225237;23;20414;-93
2020/12/16 04:18:07;;;;;;;26.07;13.63;;;;;;;;;;6224434;23;20415;-93
2020/12/16 04:20:33;;;;;;;22.43;14.20;;;;;;;;;;6226619;23;20443;-92
2020/12/16 04:22:59;;;;;;;27.20;14.80;;;;;;;;;;6225986;23;20433;-93
2020/12/16 04:25:26;;;;;;;28.97;17.90;;;;;;;;;;6223809;23;20427;-94
2020/12/16 04:27:53;;;;;;;28.97;17.00;;;;;;;;;;6224138;23;20422;-93
2020/12/16 04:30:19;;;;;;;30.77;18.23;;;;;;;;;;6225322;23;20714;-93
2020/12/16 04:32:45;;;;;;;31.17;16.43;;;;;;;;;;6226458;23;20413;-94
2020/12/16 04:35:11;;;;;;;33.00;17.27;;;;;;;;;;6224427;23;20407;-93
2020/12/16 04:37:37;;;;;;;28.90;16.73;;;;;;;;;;6224847;23;20406;-93
2020/12/16 04:40:03;;;;;;;25.40;15.30;;;;;;;;;;6223996;23;20449;-93
2020/12/16 04:42:30;;;;;;;25.90;14.90;;;;;;;;;;6225367;23;20408;-93
2020/12/16 04:44:56;;;;;;;21.97;13.87;;;;;;;;;;6224320;23;20417;-93
2020/12/16 04:47:22;;;;;;;27.00;14.57;;;;;;;;;;6226864;23;20403;-93
2020/12/16 04:49:48;;;;;;;28.00;15.27;;;;;;;;;;6226074;23;20410;-93
2020/12/16 04:52:19;;;;;;;26.40;16.90;;;;;;;;;;6224707;23;20417;-93
2020/12/16 04:54:45;;;;;;;32.10;18.07;;;;;;;;;;6224343;23;20422;-93
2020/12/16 04:57:12;;;;;;;50.80;25.43;;;;;;;;;;6223252;23;20406;-93
2020/12/16 04:59:39;;;;;;;53.17;26.20;;;;;;;;;;6224807;23;20481;-93
2020/12/16 05:02:05;;;;;;;78.60;35.90;;;;;;;;;;6224021;23;20409;-93
2020/12/16 05:04:31;;;;;;;65.50;32.23;;;;;;;;;;6225756;23;20439;-93
2020/12/16 05:06:57;;;;;;;67.53;32.60;;;;;;;;;;6224861;23;20417;-93
2020/12/16 05:09:23;;;;;;;38.53;21.93;;;;;;;;;;6226549;23;20414;-92
2020/12/16 05:11:50;;;;;;;31.70;19.57;;;;;;;;;;6227317;23;20429;-93
2020/12/16 05:14:17;;;;;;;33.50;19.60;;;;;;;;;;6224654;23;20437;-92
2020/12/16 05:16:54;;;;;;;31.40;20.17;;;;;;;;;;6224722;23;20437;-93
2020/12/16 05:19:30;;;;;;;32.80;21.63;;;;;;;;;;6223236;23;20483;-92
2020/12/16 05:22:10;;;;;;;37.07;23.60;;;;;;;;;;6224843;23;20412;-93
2020/12/16 05:24:36;;;;;;;42.00;26.50;;;;;;;;;;6224921;23;20473;-93
2020/12/16 05:27:02;;;;;;;36.20;23.20;;;;;;;;;;6230251;23;20412;-92
2020/12/16 05:29:29;;;;;;;39.93;23.83;;;;;;;;;;6223988;23;20410;-93
2020/12/16 05:31:56;;;;;;;34.30;20.97;;;;;;;;;;6224779;23;20438;-95
2020/12/16 05:34:27;;;;;;;32.43;19.90;;;;;;;;;;6223600;23;20403;-92
2020/12/16 05:36:53;;;;;;;30.47;19.80;;;;;;;;;;6225291;23;20399;-93
2020/12/16 05:39:19;;;;;;;30.13;17.67;;;;;;;;;;6226094;23;20438;-93
2020/12/16 05:41:53;;;;;;;26.40;15.20;;;;;;;;;;6223176;23;20411;-93
2020/12/16 05:44:20;;;;;;;23.57;14.40;;;;;;;;;;6226355;23;20417;-93
2020/12/16 05:46:47;;;;;;;23.50;14.13;;;;;;;;;;6225490;23;20426;-94
2020/12/16 05:49:24;;;;;;;24.10;14.20;;;;;;;;;;6230419;23;20448;-95
2020/12/16 05:51:58;;;;;;;20.20;12.07;;;;;;;;;;6234599;23;20456;-94
2020/12/16 05:54:24;;;;;;;25.07;12.07;;;;;;;;;;6225444;23;20425;-96
2020/12/16 05:57:08;;;;;;;21.93;12.57;;;;;;;;;;6216043;23;20422;-96
2020/12/16 05:59:34;;;;;;;22.73;13.50;;;;;;;;;;6217290;23;20469;-96
2020/12/16 06:02:01;;;;;;;18.40;12.07;;;;;;;;;;6215764;23;20230;-96
2020/12/16 06:04:29;;;;;;;31.73;16.40;;;;;;;;;;6219167;23;20459;-96
2020/12/16 06:06:56;;;;;;;28.27;16.47;;;;;;;;;;6218367;23;20409;-95
2020/12/16 06:09:23;;;;;;;25.97;15.97;;;;;;;;;;6218079;23;20442;-95
2020/12/16 06:11:51;;;;;;;31.30;18.00;;;;;;;;;;6227109;23;20456;-96
2020/12/16 06:14:20;;;;;;;29.70;17.70;;;;;;;;;;6228531;23;20425;-95
2020/12/16 06:16:47;;;;;;;30.63;19.37;;;;;;;;;;6229504;23;20466;-94
2020/12/16 06:19:22;;;;;;;33.73;20.20;;;;;;;;;;6228438;23;20749;-96
2020/12/16 06:21:55;;;;;;;31.50;18.37;;;;;;;;;;6228782;23;20398;-96
2020/12/16 06:24:24;;;;;;;34.50;18.50;;;;;;;;;;6201152;23;21250;-96
2020/12/16 06:26:53;;;;;;;34.07;18.40;;;;;;;;;;6236360;23;20428;-95
2020/12/16 06:51:58;;;;;;;24.60;15.20;;;;;;;;;;6210385;22;20464;-96
2020/12/16 07:05:57;;;;;;;26.17;15.50;;;;;;;;;;6206105;22;20234;-96
2020/12/16 07:56:33;;;;;;;31.77;15.73;;;;;;;;;;6221936;22;20507;-95
2020/12/16 07:59:12;;;;;;;29.40;17.98;;;;;;;;;;6232612;23;20410;-96
2020/12/16 08:44:22;;;;;;;27.23;14.77;;;;;;;;;;6228682;22;20461;-96
2020/12/16 08:46:50;;;;;;;29.80;15.73;;;;;;;;;;6216707;22;20497;-96
2020/12/16 09:03:25;;;;;;;41.80;20.77;;;;;;;;;;6237117;22;20892;-96
2020/12/16 09:05:55;;;;;;;35.33;20.03;;;;;;;;;;6237727;23;20422;-96
2020/12/16 09:08:23;;;;;;;32.63;18.17;;;;;;;;;;6237836;23;20410;-96
2020/12/16 09:11:00;;;;;;;35.73;19.00;;;;;;;;;;6235889;23;20422;-96
2020/12/16 09:32:35;;;;;;;39.03;22.03;;;;;;;;;;6194627;22;20509;-96
2020/12/16 09:35:04;;;;;;;38.83;19.87;;;;;;;;;;6196881;22;20444;-96
2020/12/16 09:53:49;;;;;;;31.70;17.60;;;;;;;;;;6253475;22;20449;-96
2020/12/16 10:19:51;;;;;;;41.73;23.20;;;;;;;;;;6303810;22;20515;-96
2020/12/16 11:08:24;;;;;;;41.70;22.70;;;;;;;;;;6213133;22;20474;-96
2020/12/16 11:10:55;;;;;;;40.77;25.57;;;;;;;;;;6234494;23;20499;-96
2020/12/16 11:13:32;;;;;;;40.50;24.73;;;;;;;;;;6231962;23;20441;-96
2020/12/16 11:16:01;;;;;;;42.03;25.83;;;;;;;;;;6236334;23;20411;-96
2020/12/16 11:18:27;;;;;;;45.93;26.20;;;;;;;;;;6237050;23;20406;-96
2020/12/16 11:20:57;;;;;;;40.27;22.40;;;;;;;;;;6230855;22;20496;-96
2020/12/16 11:23:24;;;;;;;42.40;24.57;;;;;;;;;;6232620;23;20420;-96
2020/12/16 11:25:53;;;;;;;37.10;21.30;;;;;;;;;;6232363;23;20981;-96
2020/12/16 11:28:22;;;;;;;38.47;22.63;;;;;;;;;;6235622;23;20407;-96
2020/12/16 11:31:19;;;;;;;35.87;23.03;;;;;;;;;;6237419;23;20425;-96
2020/12/16 11:33:50;;;;;;;29.63;17.03;;;;;;;;;;6231692;22;20451;-96
2020/12/16 11:39:16;;;;;;;32.37;20.10;;;;;;;;;;6241356;23;21338;-95
2020/12/16 11:41:50;;;;;;;28.00;17.73;;;;;;;;;;6238763;23;20415;-96
2020/12/16 11:44:44;;;;;;;35.83;18.77;;;;;;;;;;6241057;23;20395;-96
2020/12/16 11:47:11;;;;;;;31.67;18.20;;;;;;;;;;6234702;23;20421;-96
2020/12/16 11:52:22;;;;;;;31.33;19.00;;;;;;;;;;6229045;23;20438;-96
2020/12/16 12:34:34;;;;;;;;;;;;;;;;;;;;;
2020/12/16 12:37:18;;;;;;;43.60;26.47;;;;;;;;;;6233248;23;20390;-96
2020/12/16 12:48:28;;;;;;;36.00;21.40;;;;;;;;;;6233819;23;20434;-96
2020/12/16 12:53:45;;;;;;;38.73;21.77;;;;;;;;;;6218646;23;20425;-94
2020/12/16 12:56:41;;;;;;;45.07;22.13;;;;;;;;;;6228706;23;20421;-96
2020/12/16 12:59:07;;;;;;;38.80;21.50;;;;;;;;;;6106966;23;20441;-96
2020/12/16 13:01:36;;;;;;;38.17;19.90;;;;;;;;;;6201304;23;20526;-95
2020/12/16 13:04:03;;;;;;;34.63;19.13;;;;;;;;;;6230473;23;20426;-96
2020/12/16 13:06:31;;;;;;;35.40;20.80;;;;;;;;;;6234144;23;20434;-96
2020/12/16 13:09:13;;;;;;;32.83;19.73;;;;;;;;;;6230889;23;20414;-96
2020/12/16 13:14:37;;;;;;;28.93;17.50;;;;;;;;;;6223262;22;20466;-96
2020/12/16 13:19:45;;;;;;;28.70;17.37;;;;;;;;;;6238921;22;20540;-95
2020/12/16 13:22:11;;;;;;;28.83;17.97;;;;;;;;;;6257262;23;20440;-96
2020/12/16 13:24:38;;;;;;;27.77;16.07;;;;;;;;;;6254891;23;20411;-96
2020/12/16 13:27:04;;;;;;;30.43;18.03;;;;;;;;;;6252106;23;20447;-95
2020/12/16 13:29:30;;;;;;;26.03;17.13;;;;;;;;;;6252189;23;20434;-95
2020/12/16 13:31:56;;;;;;;26.93;15.87;;;;;;;;;;6251937;23;20827;-95
2020/12/16 13:34:23;;;;;;;30.77;17.20;;;;;;;;;;6253705;23;20417;-96
2020/12/16 13:36:50;;;;;;;29.67;18.33;;;;;;;;;;6252608;23;20440;-96
2020/12/16 13:39:16;;;;;;;32.13;19.53;;;;;;;;;;6251761;23;20473;-96
2020/12/16 13:41:44;;;;;;;35.70;20.03;;;;;;;;;;6255451;23;20477;-96
2020/12/16 13:44:10;;;;;;;35.17;19.70;;;;;;;;;;6256270;23;20483;-96
2020/12/16 14:29:17;;;;;;;45.87;26.37;;;;;;;;;;6235747;22;20411;-96
2020/12/16 14:41:09;;;;;;;51.67;29.30;;;;;;;;;;6224672;23;20464;-94
2020/12/16 14:43:48;;;;;;;50.47;28.17;;;;;;;;;;6216109;23;20418;-96
2020/12/16 14:46:22;;;;;;;57.50;31.03;;;;;;;;;;6216628;23;20482;-96
2020/12/16 14:48:48;;;;;;;54.87;29.10;;;;;;;;;;6215963;23;20418;-95
2020/12/16 14:51:14;;;;;;;49.57;29.30;;;;;;;;;;6220018;23;20919;-95
2020/12/16 14:53:40;;;;;;;54.90;28.43;;;;;;;;;;6224157;23;20478;-95
2020/12/16 14:56:06;;;;;;;56.63;30.17;;;;;;;;;;6224215;23;20497;-93
2020/12/16 14:58:32;;;;;;;49.33;28.27;;;;;;;;;;6225735;23;20445;-94
2020/12/16 15:01:00;;;;;;;54.10;30.40;;;;;;;;;;6222228;23;20843;-93
2020/12/16 15:03:33;;;;;;;49.87;29.87;;;;;;;;;;6224211;23;20434;-95
2020/12/16 15:05:59;;;;;;;52.73;28.47;;;;;;;;;;6226667;23;20441;-95
2020/12/16 15:08:25;;;;;;;53.67;28.00;;;;;;;;;;6228010;23;20505;-96
2020/12/16 15:11:01;;;;;;;49.27;29.63;;;;;;;;;;6227888;23;20478;-95
2020/12/16 15:13:27;;;;;;;54.80;29.27;;;;;;;;;;6226909;23;20437;-93
2020/12/16 15:15:54;;;;;;;57.87;28.27;;;;;;;;;;6225813;23;20418;-94
2020/12/16 15:18:20;;;;;;;50.10;26.87;;;;;;;;;;6227361;23;20541;-94
2020/12/16 15:20:47;;;;;;;47.07;25.40;;;;;;;;;;6227698;23;20449;-95
2020/12/16 15:23:13;;;;;;;43.57;24.50;;;;;;;;;;6225867;23;20418;-93
2020/12/16 15:25:39;;;;;;;36.83;21.60;;;;;;;;;;6226484;23;20425;-94
2020/12/16 15:28:05;;;;;;;47.67;24.37;;;;;;;;;;6224055;23;20402;-94
2020/12/16 15:30:31;;;;;;;46.17;26.87;;;;;;;;;;6227460;23;20409;-95
2020/12/16 15:32:57;;;;;;;43.70;23.33;;;;;;;;;;6225538;23;20489;-94
2020/12/16 15:35:23;;;;;;;43.77;22.60;;;;;;;;;;6226768;23;21006;-95
2020/12/16 15:37:50;;;;;;;42.90;23.80;;;;;;;;;;6225659;23;20501;-94
2020/12/16 15:40:17;;;;;;;41.27;23.40;;;;;;;;;;6227269;23;20484;-94
2020/12/16 15:42:43;;;;;;;38.97;21.37;;;;;;;;;;6228174;23;20481;-96
2020/12/16 15:45:09;;;;;;;37.90;22.33;;;;;;;;;;6225736;23;20445;-95
2020/12/16 15:47:35;;;;;;;46.27;24.00;;;;;;;;;;6227275;23;20827;-94
2020/12/16 15:50:01;;;;;;;46.17;23.63;;;;;;;;;;6225418;23;20426;-96
2020/12/16 15:52:28;;;;;;;41.33;22.43;;;;;;;;;;6227304;23;20441;-94
2020/12/16 15:54:55;;;;;;;34.50;20.23;;;;;;;;;;6225322;23;20414;-96
2020/12/16 15:57:21;;;;;;;44.60;24.23;;;;;;;;;;6226646;23;20413;-96
2020/12/16 15:59:47;;;;;;;45.93;25.50;;;;;;;;;;6228712;23;20418;-95
2020/12/16 16:02:13;;;;;;;40.77;21.70;;;;;;;;;;6227176;23;20545;-95
2020/12/16 16:04:40;;;;;;;45.33;24.33;;;;;;;;;;6227480;23;20423;-96
2020/12/16 16:07:06;;;;;;;51.90;25.07;;;;;;;;;;6227601;23;20406;-94
2020/12/16 16:09:32;;;;;;;42.17;22.00;;;;;;;;;;6227529;23;20419;-96
2020/12/16 16:12:01;;;;;;;44.83;24.17;;;;;;;;;;6228685;23;20401;-96
2020/12/16 16:14:27;;;;;;;52.40;26.47;;;;;;;;;;6238446;23;20813;-96
2020/12/16 16:16:53;;;;;;;47.87;25.63;;;;;;;;;;6226244;23;20409;-95
2020/12/16 16:19:19;;;;;;;50.27;26.83;;;;;;;;;;6227123;23;20414;-96
2020/12/16 16:21:46;;;;;;;59.17;30.93;;;;;;;;;;6226094;23;20530;-96
2020/12/16 16:24:12;;;;;;;55.20;28.80;;;;;;;;;;6227779;23;20427;-96
2020/12/16 16:26:38;;;;;;;54.80;30.57;;;;;;;;;;6225690;23;20487;-95
2020/12/16 16:29:07;;;;;;;49.87;28.63;;;;;;;;;;6225475;23;20410;-96
2020/12/16 16:31:37;;;;;;;56.87;28.80;;;;;;;;;;6224347;23;21017;-94
2020/12/16 16:34:03;;;;;;;49.33;28.03;;;;;;;;;;6223683;23;20415;-94
2020/12/16 16:36:29;;;;;;;52.30;27.20;;;;;;;;;;6223775;23;20407;-94
2020/12/16 16:38:55;;;;;;;59.40;32.03;;;;;;;;;;6221726;23;20430;-92
2020/12/16 16:41:21;;;;;;;55.67;30.20;;;;;;;;;;6219498;23;20478;-92
2020/12/16 16:43:48;;;;;;;62.00;29.40;;;;;;;;;;6217170;23;20410;-92
2020/12/16 16:46:14;;;;;;;67.43;35.77;;;;;;;;;;6221222;23;20448;-93
2020/12/16 16:48:40;;;;;;;64.57;33.97;;;;;;;;;;6224187;23;20912;-92
2020/12/16 16:51:07;;;;;;;58.27;32.03;;;;;;;;;;6221300;23;20876;-93
2020/12/16 16:53:33;;;;;;;59.60;30.07;;;;;;;;;;6223184;23;21022;-93
2020/12/16 16:55:59;;;;;;;56.87;32.10;;;;;;;;;;6222362;23;20413;-93
2020/12/16 16:58:25;;;;;;;70.33;38.93;;;;;;;;;;6223944;23;20907;-93
2020/12/16 17:00:51;;;;;;;76.27;37.80;;;;;;;;;;6219293;23;20480;-93
2020/12/16 17:03:25;;;;;;;66.43;36.20;;;;;;;;;;6222154;23;20407;-93
2020/12/16 17:05:51;;;;;;;71.80;37.30;;;;;;;;;;6221941;23;20409;-93
2020/12/16 17:08:17;;;;;;;65.07;36.30;;;;;;;;;;6223380;23;20410;-94
2020/12/16 17:10:43;;;;;;;70.13;38.97;;;;;;;;;;6223936;23;20414;-94
2020/12/16 17:13:09;;;;;;;66.17;37.10;;;;;;;;;;6224486;23;20434;-93
2020/12/16 17:15:35;;;;;;;72.33;41.60;;;;;;;;;;6224211;23;20411;-94
2020/12/16 17:18:02;;;;;;;64.50;38.00;;;;;;;;;;6228000;23;20509;-94
2020/12/16 17:20:29;;;;;;;70.10;36.93;;;;;;;;;;6229270;23;20446;-94
2020/12/16 17:22:55;;;;;;;72.13;39.30;;;;;;;;;;6225106;23;20480;-95
2020/12/16 17:25:21;;;;;;;64.87;38.53;;;;;;;;;;6222191;23;20406;-95
2020/12/16 17:27:48;;;;;;;62.30;36.67;;;;;;;;;;6221711;23;21444;-96
2020/12/16 17:30:15;;;;;;;63.67;38.00;;;;;;;;;;6224692;23;20419;-95
2020/12/16 17:32:42;;;;;;;64.67;37.73;;;;;;;;;;6224019;23;20402;-96
2020/12/16 17:35:09;;;;;;;70.90;39.40;;;;;;;;;;6220113;23;20468;-95
2020/12/16 17:37:36;;;;;;;66.03;39.13;;;;;;;;;;6223257;23;20419;-96
2020/12/16 17:40:03;;;;;;;68.13;37.53;;;;;;;;;;6223073;23;20450;-94
2020/12/16 17:42:29;;;;;;;60.93;34.93;;;;;;;;;;6225078;23;20411;-96
2020/12/16 17:44:55;;;;;;;61.70;38.00;;;;;;;;;;6224980;23;20429;-96
2020/12/16 17:47:21;;;;;;;63.73;37.50;;;;;;;;;;6225783;23;20428;-95
2020/12/16 17:49:47;;;;;;;75.57;43.37;;;;;;;;;;6223684;23;20445;-96
2020/12/16 17:52:13;;;;;;;85.20;45.53;;;;;;;;;;6225540;23;20418;-94
2020/12/16 17:54:40;;;;;;;106.57;55.20;;;;;;;;;;6226552;23;20434;-95
2020/12/16 17:57:06;;;;;;;119.07;60.80;;;;;;;;;;6233994;23;20414;-96
2020/12/16 17:59:33;;;;;;;127.83;65.90;;;;;;;;;;6229707;23;20415;-95
2020/12/16 18:01:59;;;;;;;119.80;62.70;;;;;;;;;;6224429;23;20443;-94
2020/12/16 18:04:25;;;;;;;113.70;60.10;;;;;;;;;;6226639;23;20403;-95
2020/12/16 18:06:51;;;;;;;123.13;62.83;;;;;;;;;;6230634;23;20406;-94
2020/12/16 18:09:17;;;;;;;105.03;59.03;;;;;;;;;;6225224;23;20415;-95
2020/12/16 18:11:45;;;;;;;99.40;54.73;;;;;;;;;;6223196;23;20413;-96
2020/12/16 18:14:11;;;;;;;92.10;49.90;;;;;;;;;;6224845;23;20411;-95
2020/12/16 18:16:37;;;;;;;94.07;50.33;;;;;;;;;;6224725;23;20433;-96
2020/12/16 18:19:03;;;;;;;82.17;47.30;;;;;;;;;;6224008;23;20398;-96
2020/12/16 18:21:31;;;;;;;81.43;45.70;;;;;;;;;;6223979;23;20457;-96
2020/12/16 18:23:57;;;;;;;78.40;45.90;;;;;;;;;;6222843;23;21175;-95
2020/12/16 18:26:25;;;;;;;74.30;43.10;;;;;;;;;;6222777;23;20418;-96
2020/12/16 18:28:52;;;;;;;76.47;42.20;;;;;;;;;;6222235;23;20426;-95
2020/12/16 18:31:22;;;;;;;79.40;43.23;;;;;;;;;;6226518;23;20403;-96
2020/12/16 18:33:48;;;;;;;71.00;39.37;;;;;;;;;;6225449;23;20413;-96
2020/12/16 18:36:14;;;;;;;70.80;39.37;;;;;;;;;;6223094;23;20436;-96
2020/12/16 18:38:41;;;;;;;65.87;37.87;;;;;;;;;;6222513;23;20442;-96
2020/12/16 18:41:07;;;;;;;76.50;40.13;;;;;;;;;;6224596;23;20576;-96
2020/12/16 18:43:33;;;;;;;73.27;41.07;;;;;;;;;;6224360;23;20971;-95
2020/12/16 18:46:01;;;;;;;74.37;42.17;;;;;;;;;;6225187;23;20426;-96
2020/12/16 18:48:27;;;;;;;70.07;39.40;;;;;;;;;;6226161;23;20410;-96
2020/12/16 18:50:53;;;;;;;64.20;38.47;;;;;;;;;;6224956;23;20421;-96
2020/12/16 18:53:19;;;;;;;67.87;39.50;;;;;;;;;;6225323;23;20409;-96
2020/12/16 18:55:46;;;;;;;69.97;39.57;;;;;;;;;;6231929;23;20510;-96
2020/12/16 18:58:12;;;;;;;66.90;39.90;;;;;;;;;;6230824;23;21010;-96
2020/12/16 19:00:38;;;;;;;74.43;40.10;;;;;;;;;;6231080;23;20530;-96
2020/12/16 19:03:07;;;;;;;60.10;35.40;;;;;;;;;;6237729;23;20446;-96
2020/12/16 19:05:36;;;;;;;66.37;37.67;;;;;;;;;;6233020;23;20411;-96
2020/12/16 19:10:47;;;;;;;57.90;32.20;;;;;;;;;;6238093;23;20422;-96
2020/12/16 19:13:44;;;;;;;61.20;34.17;;;;;;;;;;6240525;23;20426;-96
2020/12/16 19:16:30;;;;;;;52.37;30.50;;;;;;;;;;6238012;23;20414;-96
2020/12/16 19:18:59;;;;;;;49.03;27.70;;;;;;;;;;6232536;23;20422;-96
2020/12/16 19:21:25;;;;;;;52.63;29.07;;;;;;;;;;6231948;23;20518;-96
2020/12/16 19:23:52;;;;;;;50.73;27.80;;;;;;;;;;6230936;23;20431;-96
2020/12/16 19:26:18;;;;;;;47.00;26.73;;;;;;;;;;6229481;23;20509;-96
2020/12/16 19:28:44;;;;;;;48.77;29.20;;;;;;;;;;6226493;23;20486;-96
2020/12/16 19:31:12;;;;;;;52.20;28.50;;;;;;;;;;6230653;23;20406;-96
2020/12/16 19:33:44;;;;;;;56.63;29.87;;;;;;;;;;6232089;23;20448;-95
2020/12/16 19:36:11;;;;;;;48.03;28.37;;;;;;;;;;6236559;23;20445;-96
2020/12/16 19:38:40;;;;;;;49.53;28.17;;;;;;;;;;6236824;23;20502;-96
2020/12/16 19:41:08;;;;;;;48.20;28.23;;;;;;;;;;6239660;23;20454;-96
2020/12/16 19:43:35;;;;;;;48.33;27.90;;;;;;;;;;6241048;23;20398;-96
2020/12/16 19:46:22;;;;;;;47.53;27.03;;;;;;;;;;6234371;23;20399;-96
2020/12/16 19:48:48;;;;;;;54.20;28.50;;;;;;;;;;6233441;23;21086;-95
2020/12/16 19:51:21;;;;;;;59.70;30.97;;;;;;;;;;6230323;23;20411;-96
2020/12/16 19:53:47;;;;;;;55.43;30.30;;;;;;;;;;6234937;23;20410;-96
2020/12/16 19:56:14;;;;;;;51.80;28.33;;;;;;;;;;6235684;23;20438;-96
2020/12/16 19:58:40;;;;;;;64.60;30.97;;;;;;;;;;6234828;23;20415;-95
2020/12/16 20:01:06;;;;;;;51.07;29.07;;;;;;;;;;6232263;23;20478;-96
2020/12/16 20:03:32;;;;;;;53.83;28.60;;;;;;;;;;6229414;23;20421;-96
2020/12/16 20:05:59;;;;;;;56.47;28.27;;;;;;;;;;6224236;23;20415;-94
2020/12/16 20:08:26;;;;;;;56.13;29.27;;;;;;;;;;6223161;23;20410;-93
2020/12/16 20:10:52;;;;;;;51.37;28.90;;;;;;;;;;6222839;23;20482;-94
2020/12/16 20:13:18;;;;;;;55.30;29.70;;;;;;;;;;6221878;23;20407;-93
2020/12/16 20:15:47;;;;;;;58.27;30.90;;;;;;;;;;6222425;23;20433;-92
2020/12/16 20:18:13;;;;;;;54.43;30.23;;;;;;;;;;6222458;23;20425;-93
2020/12/16 20:20:39;;;;;;;59.57;31.03;;;;;;;;;;6225391;23;20446;-92
2020/12/16 20:23:05;;;;;;;62.67;29.33;;;;;;;;;;6225192;23;20411;-92